LIPE/BLQ METAR and TAF weather

Enter ICAO airport designator
Station Type Date Time Source
LIPE METAR 2021/09/23 22:50 UTC NOAA

LIPE 232250Z 20007KT CAVOK 15/11 Q1020


Station Type Date Time Source
LIPE Decoded METAR 2021/09/23 22:50 UTC NOAA

Bologna / Borgo Panigale, Italy (LIPE) 44-32N 011-18E 49M
Sep 23, 2021 - 06:50 PM EDT / 2021.09.23 2250 UTC
Wind: from the SSW (200 degrees) at 8 MPH (7 KT):0
Visibility: greater than 7 mile(s):0
Temperature: 59 F (15 C)
Dew Point: 51 F (11 C)
Relative Humidity: 76%
Pressure (altimeter): 30.12 in. Hg (1020 hPa)
ob: LIPE 232250Z 20007KT CAVOK 15/11 Q1020
cycle: 23

Station Type Date Time Source
LIPE TAF 2021/09/23 18:25 UTC NOAA

TAF LIPE 231700Z 2318/2418 VRB05KT CAVOK

Example: see airport list